createdAt,value
2017-07-19T00:00:19.262Z,939.66
2017-07-19T00:00:47.358Z,939.6
2017-07-19T00:01:15.540Z,939.63
2017-07-19T00:01:43.841Z,939.61
2017-07-19T00:02:12.004Z,939.61
2017-07-19T00:02:40.116Z,939.59
2017-07-19T00:03:08.316Z,939.6
2017-07-19T00:03:36.479Z,939.6
2017-07-19T00:04:04.452Z,939.66
2017-07-19T00:04:32.574Z,939.65
2017-07-19T00:05:00.725Z,939.61
2017-07-19T00:05:28.734Z,939.65
2017-07-19T00:05:56.851Z,939.67
2017-07-19T00:06:25.060Z,939.65
2017-07-19T00:06:53.186Z,939.69
2017-07-19T00:07:21.421Z,939.69
2017-07-19T00:07:49.633Z,939.69
2017-07-19T00:08:17.827Z,939.66
2017-07-19T00:08:45.942Z,939.69
2017-07-19T00:09:14.157Z,939.67
2017-07-19T00:09:42.354Z,939.68
2017-07-19T00:10:10.454Z,939.63
2017-07-19T00:10:38.614Z,939.61
2017-07-19T00:11:06.870Z,939.52
2017-07-19T00:11:35.106Z,939.56
2017-07-19T00:12:03.312Z,939.58
2017-07-19T00:12:31.477Z,939.54
2017-07-19T00:12:59.594Z,939.52
2017-07-19T00:13:27.744Z,939.5
2017-07-19T00:13:55.914Z,939.49
2017-07-19T00:14:24.128Z,939.43
2017-07-19T00:14:52.327Z,939.42
2017-07-19T00:15:20.470Z,939.4
2017-07-19T00:15:48.580Z,939.39
2017-07-19T00:16:16.706Z,939.4
2017-07-19T00:16:45.097Z,939.39
2017-07-19T00:17:13.063Z,939.39
2017-07-19T00:17:41.314Z,939.52
2017-07-19T00:18:09.508Z,939.53
2017-07-19T00:18:37.541Z,939.54
2017-07-19T00:19:05.674Z,939.54
2017-07-19T00:19:33.765Z,939.55
2017-07-19T00:20:01.997Z,939.53
2017-07-19T00:20:30.037Z,939.57
2017-07-19T00:20:58.210Z,939.57
2017-07-19T00:21:26.275Z,939.58
2017-07-19T00:21:54.629Z,939.56
2017-07-19T00:22:22.855Z,939.49
2017-07-19T00:22:50.967Z,939.56
2017-07-19T00:23:19.068Z,939.59
2017-07-19T00:23:47.255Z,939.58
2017-07-19T00:24:15.491Z,939.54
2017-07-19T00:24:43.603Z,939.56
2017-07-19T00:25:11.681Z,939.53
2017-07-19T00:25:39.805Z,939.55
2017-07-19T00:26:08.005Z,939.54
2017-07-19T00:26:36.073Z,939.55
2017-07-19T00:27:04.395Z,939.52
2017-07-19T00:27:32.608Z,939.52
2017-07-19T00:28:00.718Z,939.58
2017-07-19T00:28:28.814Z,939.56
2017-07-19T00:28:57.009Z,939.57
2017-07-19T00:29:25.129Z,939.55
2017-07-19T00:29:53.347Z,939.56
2017-07-19T00:30:21.469Z,939.6
2017-07-19T00:30:49.608Z,939.57
2017-07-19T00:31:17.565Z,939.58
2017-07-19T00:31:45.861Z,939.58
2017-07-19T00:32:14.001Z,939.55
2017-07-19T00:32:42.193Z,939.56
2017-07-19T00:33:10.302Z,939.55
2017-07-19T00:33:38.434Z,939.56
2017-07-19T00:34:06.561Z,939.52
2017-07-19T00:34:34.772Z,939.53
2017-07-19T00:35:02.930Z,939.55
2017-07-19T00:35:31.177Z,939.56
2017-07-19T00:35:59.261Z,939.53
2017-07-19T00:36:27.462Z,939.56
2017-07-19T00:36:55.684Z,939.53
2017-07-19T00:37:23.711Z,939.55
2017-07-19T00:37:51.926Z,939.53
2017-07-19T00:38:20.090Z,939.58
2017-07-19T00:38:48.169Z,939.55
2017-07-19T00:39:16.347Z,939.58
2017-07-19T00:39:44.437Z,939.56
2017-07-19T00:40:12.653Z,939.56
2017-07-19T00:40:40.781Z,939.6
2017-07-19T00:41:09.043Z,939.56
2017-07-19T00:41:37.278Z,939.59
2017-07-19T00:42:05.679Z,939.55
2017-07-19T00:42:33.867Z,939.58
2017-07-19T00:43:01.940Z,939.61
2017-07-19T00:43:30.187Z,939.6
2017-07-19T00:43:58.390Z,939.59
2017-07-19T00:44:26.608Z,939.53
2017-07-19T00:44:54.765Z,939.53
2017-07-19T00:45:23.010Z,939.56
2017-07-19T00:45:51.139Z,939.53
2017-07-19T00:46:19.273Z,939.48
2017-07-19T00:46:47.507Z,939.48
2017-07-19T00:47:15.803Z,939.48
2017-07-19T00:47:44.066Z,939.5
2017-07-19T00:48:12.335Z,939.45
2017-07-19T00:48:40.455Z,939.46
2017-07-19T00:49:08.605Z,939.49
2017-07-19T00:49:36.842Z,939.49
2017-07-19T00:50:04.946Z,939.5
2017-07-19T00:50:33.126Z,939.49
2017-07-19T00:51:01.296Z,939.52
2017-07-19T00:51:29.362Z,939.53
2017-07-19T00:51:57.532Z,939.53
2017-07-19T00:52:26.002Z,939.55
2017-07-19T00:52:54.126Z,939.56
2017-07-19T00:53:22.194Z,939.57
2017-07-19T00:53:50.441Z,939.56
2017-07-19T00:54:18.662Z,939.55
2017-07-19T00:54:46.862Z,939.57
2017-07-19T00:55:15.033Z,939.58
2017-07-19T00:55:43.321Z,939.6
2017-07-19T00:56:11.462Z,939.62
2017-07-19T00:56:39.627Z,939.6
2017-07-19T00:57:07.956Z,939.62
2017-07-19T00:57:36.111Z,939.64
2017-07-19T00:58:04.245Z,939.65
2017-07-19T00:58:32.422Z,939.61
2017-07-19T00:59:00.633Z,939.6
2017-07-19T00:59:28.766Z,939.65
2017-07-19T00:59:56.847Z,939.62
2017-07-19T01:00:25.091Z,939.63
2017-07-19T01:00:53.216Z,939.64
2017-07-19T01:01:21.414Z,939.6
2017-07-19T01:01:49.569Z,939.6
2017-07-19T01:02:17.926Z,939.62
2017-07-19T01:02:46.074Z,939.6
2017-07-19T01:03:14.174Z,939.57
2017-07-19T01:03:42.377Z,939.58
2017-07-19T01:04:10.393Z,939.56
2017-07-19T01:04:38.645Z,939.56
2017-07-19T01:05:06.841Z,939.56
2017-07-19T01:05:34.961Z,939.58
2017-07-19T01:06:03.034Z,939.55
2017-07-19T01:06:31.173Z,939.55
2017-07-19T01:06:59.407Z,939.61
2017-07-19T01:07:27.715Z,939.59
2017-07-19T01:07:55.930Z,939.61
2017-07-19T01:08:24.014Z,939.59
2017-07-19T01:08:52.055Z,939.61
2017-07-19T01:09:20.279Z,939.58
2017-07-19T01:09:48.397Z,939.57
2017-07-19T01:10:16.427Z,939.57
2017-07-19T01:10:44.638Z,939.55
2017-07-19T01:11:12.870Z,939.58
2017-07-19T01:11:41.016Z,939.53
2017-07-19T01:12:09.198Z,939.55
2017-07-19T01:12:37.370Z,939.55
2017-07-19T01:13:05.552Z,939.53
2017-07-19T01:13:33.812Z,939.46
2017-07-19T01:14:01.995Z,939.5
2017-07-19T01:14:30.158Z,939.53
2017-07-19T01:14:58.388Z,939.51
2017-07-19T01:15:26.616Z,939.51
2017-07-19T01:15:54.777Z,939.5
2017-07-19T01:16:22.899Z,939.51
2017-07-19T01:16:51.020Z,939.52
2017-07-19T01:17:19.294Z,939.49
2017-07-19T01:17:47.685Z,939.51
2017-07-19T01:18:15.796Z,939.51
2017-07-19T01:18:44.002Z,939.49
2017-07-19T01:19:12.233Z,939.49
2017-07-19T01:19:40.375Z,939.52
2017-07-19T01:20:08.330Z,939.51
2017-07-19T01:20:36.575Z,939.49
2017-07-19T01:21:04.540Z,939.47
2017-07-19T01:21:32.732Z,939.54
2017-07-19T01:22:00.781Z,939.44
2017-07-19T01:22:29.044Z,939.47
2017-07-19T01:22:57.168Z,939.44
2017-07-19T01:23:25.261Z,939.39
2017-07-19T01:23:53.352Z,939.47
2017-07-19T01:24:21.478Z,939.43
2017-07-19T01:24:49.604Z,939.49
2017-07-19T01:25:17.844Z,939.49
2017-07-19T01:25:45.982Z,939.45
2017-07-19T01:26:14.223Z,939.49
2017-07-19T01:26:42.338Z,939.51
2017-07-19T01:27:10.577Z,939.55
2017-07-19T01:27:38.912Z,939.55
2017-07-19T01:28:07.093Z,939.57
2017-07-19T01:28:35.233Z,939.54
2017-07-19T01:29:03.465Z,939.54
2017-07-19T01:29:31.650Z,939.55
2017-07-19T01:29:59.764Z,939.55
2017-07-19T01:30:27.936Z,939.52
2017-07-19T01:30:56.206Z,939.57
2017-07-19T01:31:24.454Z,939.53
2017-07-19T01:31:52.691Z,939.51
2017-07-19T01:32:20.917Z,939.49
2017-07-19T01:32:49.240Z,939.5
2017-07-19T01:33:17.411Z,939.49
2017-07-19T01:33:45.521Z,939.46
2017-07-19T01:34:13.705Z,939.47
2017-07-19T01:34:41.897Z,939.46
2017-07-19T01:35:10.136Z,939.47
2017-07-19T01:35:38.230Z,939.44
2017-07-19T01:36:06.166Z,939.48
2017-07-19T01:36:34.236Z,939.46
2017-07-19T01:37:02.370Z,939.46
2017-07-19T01:37:30.488Z,939.48
2017-07-19T01:37:58.784Z,939.43
2017-07-19T01:38:26.986Z,939.48
2017-07-19T01:38:55.173Z,939.49
2017-07-19T01:39:23.290Z,939.49
2017-07-19T01:39:51.481Z,939.49
2017-07-19T01:40:19.676Z,939.45
2017-07-19T01:40:47.889Z,939.5
2017-07-19T01:41:16.083Z,939.48
2017-07-19T01:41:44.327Z,939.49
2017-07-19T01:42:12.458Z,939.49
2017-07-19T01:42:40.646Z,939.47
2017-07-19T01:43:08.922Z,939.5
2017-07-19T01:43:37.798Z,939.48
2017-07-19T01:44:05.857Z,939.48
2017-07-19T01:44:33.922Z,939.48
2017-07-19T01:45:02.130Z,939.55
2017-07-19T01:45:30.080Z,939.53
2017-07-19T01:45:58.183Z,939.53
2017-07-19T01:46:26.442Z,939.54
2017-07-19T01:46:54.578Z,939.51
2017-07-19T01:47:22.806Z,939.54
2017-07-19T01:47:51.064Z,939.53
2017-07-19T01:48:19.100Z,939.53
2017-07-19T01:48:47.222Z,939.58
2017-07-19T01:49:15.431Z,939.58
2017-07-19T01:49:43.604Z,939.57
2017-07-19T01:50:11.847Z,939.58
2017-07-19T01:50:40.044Z,939.57
2017-07-19T01:51:08.177Z,939.58
2017-07-19T01:51:36.346Z,939.57
2017-07-19T01:52:04.472Z,939.55
2017-07-19T01:52:32.725Z,939.57
2017-07-19T01:53:00.953Z,939.52
2017-07-19T01:53:29.094Z,939.55
2017-07-19T01:53:57.212Z,939.55
2017-07-19T01:54:25.417Z,939.54
2017-07-19T01:54:53.587Z,939.57
2017-07-19T01:55:21.720Z,939.56
2017-07-19T01:55:49.930Z,939.53
2017-07-19T01:56:18.033Z,939.56
2017-07-19T01:56:46.231Z,939.49
2017-07-19T01:57:14.355Z,939.5
2017-07-19T01:57:42.618Z,939.54
2017-07-19T01:58:10.774Z,939.51
2017-07-19T01:58:38.787Z,939.47
2017-07-19T01:59:07.021Z,939.49
2017-07-19T01:59:34.936Z,939.47
2017-07-19T02:00:03.124Z,939.48
2017-07-19T02:00:31.332Z,939.53
2017-07-19T02:00:59.461Z,939.5
2017-07-19T02:01:27.696Z,939.52
2017-07-19T02:01:55.680Z,939.5
2017-07-19T02:02:23.776Z,939.5
2017-07-19T02:02:52.027Z,939.45
2017-07-19T02:03:20.173Z,939.49
2017-07-19T02:03:48.373Z,939.49
2017-07-19T02:04:16.581Z,939.46
2017-07-19T02:04:44.793Z,939.5
2017-07-19T02:05:13.011Z,939.42
2017-07-19T02:05:41.020Z,939.42
2017-07-19T02:06:09.054Z,939.4
2017-07-19T02:06:37.198Z,939.39
2017-07-19T02:07:05.222Z,939.36
2017-07-19T02:07:33.445Z,939.34
2017-07-19T02:08:01.784Z,939.38
2017-07-19T02:08:30.018Z,939.36
2017-07-19T02:08:58.224Z,939.33
2017-07-19T02:09:26.375Z,939.33
2017-07-19T02:09:54.608Z,939.34
2017-07-19T02:10:22.635Z,939.28
2017-07-19T02:10:50.826Z,939.29
2017-07-19T02:11:18.821Z,939.31
2017-07-19T02:11:46.835Z,939.29
2017-07-19T02:12:15.081Z,939.29
2017-07-19T02:12:43.358Z,939.33
2017-07-19T02:13:11.706Z,939.33
2017-07-19T02:13:39.747Z,939.33
2017-07-19T02:14:07.955Z,939.33
2017-07-19T02:14:35.967Z,939.37
2017-07-19T02:15:04.024Z,939.39
2017-07-19T02:15:32.217Z,939.38
2017-07-19T02:16:00.461Z,939.38
2017-07-19T02:16:28.563Z,939.37
2017-07-19T02:16:56.789Z,939.41
2017-07-19T02:17:24.923Z,939.37
2017-07-19T02:17:53.140Z,939.4
2017-07-19T02:18:21.524Z,939.41
2017-07-19T02:18:49.793Z,939.43
2017-07-19T02:19:17.947Z,939.42
2017-07-19T02:19:46.171Z,939.46
2017-07-19T02:20:14.337Z,939.41
2017-07-19T02:20:42.556Z,939.43
2017-07-19T02:21:10.646Z,939.42
2017-07-19T02:21:38.893Z,939.43
2017-07-19T02:22:06.969Z,939.43
2017-07-19T02:22:35.105Z,939.41
2017-07-19T02:23:03.437Z,939.42
2017-07-19T02:23:31.630Z,939.41
2017-07-19T02:23:59.772Z,939.41
2017-07-19T02:24:28.021Z,939.4
2017-07-19T02:24:56.133Z,939.42
2017-07-19T02:25:24.237Z,939.38
2017-07-19T02:25:52.283Z,939.4
2017-07-19T02:26:20.439Z,939.41
2017-07-19T02:26:48.688Z,939.4
2017-07-19T02:27:16.781Z,939.36
2017-07-19T02:27:44.965Z,939.4
2017-07-19T02:28:13.292Z,939.41
2017-07-19T02:28:41.506Z,939.41
2017-07-19T02:29:09.735Z,939.42
2017-07-19T02:29:37.966Z,939.38
2017-07-19T02:30:06.054Z,939.35
2017-07-19T02:30:34.265Z,939.37
2017-07-19T02:31:02.376Z,939.35
2017-07-19T02:31:30.471Z,939.39
2017-07-19T02:31:58.593Z,939.35
2017-07-19T02:32:26.721Z,939.39
2017-07-19T02:32:54.953Z,939.4
2017-07-19T02:33:23.117Z,939.38
2017-07-19T02:33:51.226Z,939.4
2017-07-19T02:34:19.339Z,939.41
2017-07-19T02:34:47.544Z,939.4
2017-07-19T02:35:15.755Z,939.35
2017-07-19T02:35:43.945Z,939.34
2017-07-19T02:36:12.018Z,939.34
2017-07-19T02:36:40.161Z,939.35
2017-07-19T02:37:08.262Z,939.34
2017-07-19T02:37:36.398Z,939.34
2017-07-19T02:38:04.623Z,939.33
2017-07-19T02:38:32.975Z,939.34
2017-07-19T02:39:01.142Z,939.35
2017-07-19T02:39:29.370Z,939.34
2017-07-19T02:39:57.545Z,939.31
2017-07-19T02:40:25.624Z,939.32
2017-07-19T02:40:53.703Z,939.33
2017-07-19T02:41:21.928Z,939.31
2017-07-19T02:41:50.160Z,939.28
2017-07-19T02:42:18.219Z,939.28
2017-07-19T02:42:46.240Z,939.24
2017-07-19T02:43:14.304Z,939.25
2017-07-19T02:43:42.487Z,939.23
2017-07-19T02:44:10.612Z,939.17
2017-07-19T02:44:38.803Z,939.25
2017-07-19T02:45:06.874Z,939.24
2017-07-19T02:45:34.927Z,939.22
2017-07-19T02:46:03.117Z,939.24
2017-07-19T02:46:31.372Z,939.23
2017-07-19T02:46:59.406Z,939.21
2017-07-19T02:47:27.552Z,939.22
2017-07-19T02:47:55.673Z,939.25
2017-07-19T02:48:23.825Z,939.19
2017-07-19T02:48:51.887Z,939.18
2017-07-19T02:49:20.055Z,939.17
2017-07-19T02:49:48.300Z,939.25
2017-07-19T02:50:16.282Z,939.17
2017-07-19T02:50:44.394Z,939.18
2017-07-19T02:51:12.537Z,939.18
2017-07-19T02:51:40.803Z,939.17
2017-07-19T02:52:09.055Z,939.18
2017-07-19T02:52:37.260Z,939.17
2017-07-19T02:53:05.265Z,939.18
2017-07-19T02:53:33.527Z,939.22
2017-07-19T02:54:01.626Z,939.21
2017-07-19T02:54:29.853Z,939.19
2017-07-19T02:54:58.039Z,939.21
2017-07-19T02:55:26.180Z,939.2
2017-07-19T02:55:54.242Z,939.2
2017-07-19T02:56:22.404Z,939.19
2017-07-19T02:56:50.596Z,939.21
2017-07-19T02:57:18.744Z,939.18
2017-07-19T02:57:46.867Z,939.22
2017-07-19T02:58:14.990Z,939.25
2017-07-19T02:58:43.213Z,939.2
2017-07-19T02:59:11.407Z,939.2
2017-07-19T02:59:39.535Z,939.23
2017-07-19T03:00:07.616Z,939.21
2017-07-19T03:00:35.888Z,939.22
2017-07-19T03:01:04.171Z,939.18
2017-07-19T03:01:32.291Z,939.21
2017-07-19T03:02:00.509Z,939.2
2017-07-19T03:02:28.629Z,939.22
2017-07-19T03:02:56.846Z,939.21
2017-07-19T03:03:25.058Z,939.2
2017-07-19T03:03:53.323Z,939.2
2017-07-19T03:04:21.481Z,939.2
2017-07-19T03:04:49.659Z,939.21
2017-07-19T03:05:17.759Z,939.16
2017-07-19T03:05:45.831Z,939.23
2017-07-19T03:06:13.988Z,939.17
2017-07-19T03:06:42.024Z,939.21
2017-07-19T03:07:10.024Z,939.17
2017-07-19T03:07:38.133Z,939.17
2017-07-19T03:08:06.378Z,939.18
2017-07-19T03:08:34.584Z,939.18
2017-07-19T03:09:02.909Z,939.17
2017-07-19T03:09:30.963Z,939.18
2017-07-19T03:09:59.132Z,939.18
2017-07-19T03:10:27.122Z,939.16
2017-07-19T03:10:55.274Z,939.19
2017-07-19T03:11:23.358Z,939.14
2017-07-19T03:11:51.603Z,939.15
2017-07-19T03:12:19.839Z,939.16
2017-07-19T03:12:48.011Z,939.16
2017-07-19T03:13:16.245Z,939.18
2017-07-19T03:13:44.403Z,939.17
2017-07-19T03:14:12.780Z,939.2
2017-07-19T03:14:40.908Z,939.19
2017-07-19T03:15:09.096Z,939.19
2017-07-19T03:15:37.295Z,939.13
2017-07-19T03:16:05.434Z,939.17
2017-07-19T03:16:33.632Z,939.2
2017-07-19T03:17:01.753Z,939.18
2017-07-19T03:17:29.843Z,939.2
2017-07-19T03:17:58.044Z,939.15
2017-07-19T03:18:26.229Z,939.21
2017-07-19T03:18:54.483Z,939.19
2017-07-19T03:19:22.618Z,939.2
2017-07-19T03:19:50.834Z,939.18
2017-07-19T03:20:19.002Z,939.19
2017-07-19T03:20:47.225Z,939.21
2017-07-19T03:21:15.442Z,939.16
2017-07-19T03:21:43.569Z,939.25
2017-07-19T03:22:11.629Z,939.2
2017-07-19T03:22:39.570Z,939.18
2017-07-19T03:23:07.652Z,939.23
2017-07-19T03:23:35.873Z,939.17
2017-07-19T03:24:04.169Z,939.2
2017-07-19T03:24:32.351Z,939.2
2017-07-19T03:25:00.429Z,939.2
2017-07-19T03:25:28.469Z,939.17
2017-07-19T03:25:56.587Z,939.21
2017-07-19T03:26:24.793Z,939.16
2017-07-19T03:26:52.945Z,939.19
2017-07-19T03:27:21.066Z,939.21
2017-07-19T03:27:49.269Z,939.23
2017-07-19T03:28:17.485Z,939.18
2017-07-19T03:28:45.510Z,939.18
2017-07-19T03:29:13.834Z,939.17
2017-07-19T03:29:41.952Z,939.14
2017-07-19T03:30:10.177Z,939.18
2017-07-19T03:30:38.173Z,939.13
2017-07-19T03:31:06.340Z,939.14
2017-07-19T03:31:34.358Z,939.14
2017-07-19T03:32:02.522Z,939.16
2017-07-19T03:32:30.518Z,939.15
2017-07-19T03:32:58.628Z,939.15
2017-07-19T03:33:26.749Z,939.13
2017-07-19T03:33:54.828Z,939.11
2017-07-19T03:34:23.205Z,939.13
2017-07-19T03:34:51.259Z,939.14
2017-07-19T03:35:19.516Z,939.14
2017-07-19T03:35:47.701Z,939.15
2017-07-19T03:36:15.834Z,939.08
2017-07-19T03:36:44.055Z,939.11
2017-07-19T03:37:12.171Z,939.09
2017-07-19T03:37:40.194Z,939.1
2017-07-19T03:38:08.296Z,939.08
2017-07-19T03:38:36.292Z,939.08
2017-07-19T03:39:04.437Z,939.1
2017-07-19T03:39:32.837Z,939.09
2017-07-19T03:40:01.050Z,939.08
2017-07-19T03:40:29.276Z,939.05
2017-07-19T03:40:57.342Z,939.06
2017-07-19T03:41:25.527Z,939.09
2017-07-19T03:41:53.641Z,939.03
2017-07-19T03:42:21.877Z,939.02
2017-07-19T03:42:50.149Z,938.96
2017-07-19T03:43:18.265Z,939
2017-07-19T03:43:46.385Z,938.98
2017-07-19T03:44:14.651Z,938.97
2017-07-19T03:44:42.855Z,938.98
2017-07-19T03:45:11.121Z,938.96
2017-07-19T03:45:39.230Z,938.91
2017-07-19T03:46:07.452Z,938.96
2017-07-19T03:46:35.565Z,938.98
2017-07-19T03:47:03.772Z,939.03
2017-07-19T03:47:31.969Z,938.94
2017-07-19T03:48:00.022Z,938.94
2017-07-19T03:48:28.262Z,939.03
2017-07-19T03:48:56.374Z,938.99
2017-07-19T03:49:24.700Z,938.99
2017-07-19T03:49:52.780Z,938.97
2017-07-19T03:50:20.899Z,939.01
2017-07-19T03:50:49.004Z,938.95
2017-07-19T03:51:17.112Z,938.98
2017-07-19T03:51:45.310Z,938.93
2017-07-19T03:52:13.335Z,938.99
2017-07-19T03:52:41.535Z,938.94
2017-07-19T03:53:09.645Z,938.92
2017-07-19T03:53:37.827Z,938.92
2017-07-19T03:54:06.018Z,938.96
2017-07-19T03:54:34.375Z,938.94
2017-07-19T03:55:02.593Z,938.91
2017-07-19T03:55:30.808Z,938.91
2017-07-19T03:55:58.926Z,938.91
2017-07-19T03:56:27.073Z,938.88
2017-07-19T03:56:55.297Z,938.9
2017-07-19T03:57:23.489Z,938.92
2017-07-19T03:57:51.628Z,938.92
2017-07-19T03:58:19.893Z,938.89
2017-07-19T03:58:48.087Z,938.92
2017-07-19T03:59:16.331Z,938.96
2017-07-19T03:59:44.692Z,938.9
2017-07-19T04:00:12.845Z,938.9
2017-07-19T04:00:40.968Z,938.93
2017-07-19T04:01:09.149Z,938.94
2017-07-19T04:01:37.333Z,938.97
2017-07-19T04:02:05.511Z,938.97
2017-07-19T04:02:33.614Z,938.92
2017-07-19T04:03:01.718Z,938.96
2017-07-19T04:03:29.905Z,938.97
2017-07-19T04:03:58.083Z,938.94
2017-07-19T04:04:26.137Z,939
2017-07-19T04:04:54.396Z,938.99
2017-07-19T04:05:22.609Z,938.99
2017-07-19T04:05:50.810Z,938.97
2017-07-19T04:06:19.047Z,938.92
2017-07-19T04:06:47.280Z,938.97
2017-07-19T04:07:15.420Z,938.95
2017-07-19T04:07:43.551Z,938.96
2017-07-19T04:08:11.586Z,938.88
2017-07-19T04:08:39.713Z,938.96
2017-07-19T04:09:07.883Z,938.94
2017-07-19T04:09:36.059Z,938.94
2017-07-19T04:10:04.304Z,938.94
2017-07-19T04:10:32.312Z,938.94
2017-07-19T04:11:00.537Z,938.96
2017-07-19T04:11:28.663Z,939.01
2017-07-19T04:11:56.835Z,939
2017-07-19T04:12:25.035Z,939.02
2017-07-19T04:12:53.189Z,938.95
2017-07-19T04:13:21.197Z,938.94
2017-07-19T04:13:49.350Z,939.03
2017-07-19T04:14:17.587Z,938.99
2017-07-19T04:14:45.794Z,939.05
2017-07-19T04:15:13.828Z,939.02
2017-07-19T04:15:42.105Z,939
2017-07-19T04:16:10.379Z,939.02
2017-07-19T04:16:38.605Z,939.05
2017-07-19T04:17:06.716Z,939.04
2017-07-19T04:17:34.917Z,938.99
2017-07-19T04:18:03.175Z,939
2017-07-19T04:18:31.188Z,939.02
2017-07-19T04:18:59.445Z,938.97
2017-07-19T04:19:27.692Z,938.97
2017-07-19T04:19:56.044Z,938.94
2017-07-19T04:20:24.257Z,938.96
2017-07-19T04:20:52.435Z,938.97
2017-07-19T04:21:20.618Z,938.94
2017-07-19T04:21:48.841Z,938.96
2017-07-19T04:22:16.938Z,938.98
2017-07-19T04:22:45.140Z,938.93
2017-07-19T04:23:13.338Z,938.93
2017-07-19T04:23:41.444Z,938.96
2017-07-19T04:24:09.707Z,938.95
2017-07-19T04:24:37.811Z,938.98
2017-07-19T04:25:05.964Z,938.98
2017-07-19T04:25:34.039Z,938.96
2017-07-19T04:26:02.220Z,938.96
2017-07-19T04:26:30.323Z,938.98
2017-07-19T04:26:58.426Z,938.98
2017-07-19T04:27:26.610Z,938.93
2017-07-19T04:27:54.618Z,938.93
2017-07-19T04:28:22.820Z,938.96
2017-07-19T04:28:51.102Z,938.91
2017-07-19T04:29:19.135Z,938.91
2017-07-19T04:29:47.283Z,938.88
2017-07-19T04:30:15.334Z,938.9
2017-07-19T04:30:43.356Z,938.89
2017-07-19T04:31:11.562Z,938.87
2017-07-19T04:31:39.601Z,938.91
2017-07-19T04:32:07.649Z,938.89
2017-07-19T04:32:35.788Z,938.85
2017-07-19T04:33:04.004Z,938.82
2017-07-19T04:33:32.200Z,938.86
2017-07-19T04:34:00.384Z,938.86
2017-07-19T04:34:28.594Z,938.85
2017-07-19T04:34:56.905Z,938.81
2017-07-19T04:35:25.030Z,938.82
2017-07-19T04:35:53.269Z,938.82
2017-07-19T04:36:21.447Z,938.82
2017-07-19T04:36:49.581Z,938.76
2017-07-19T04:37:17.787Z,938.81
2017-07-19T04:37:45.977Z,938.76
2017-07-19T04:38:14.244Z,938.75
2017-07-19T04:38:42.364Z,938.74
2017-07-19T04:39:10.377Z,938.72
2017-07-19T04:39:38.476Z,938.7
2017-07-19T04:40:06.821Z,938.7
2017-07-19T04:40:34.976Z,938.7
2017-07-19T04:41:03.217Z,938.69
2017-07-19T04:41:31.392Z,938.69
2017-07-19T04:41:59.614Z,938.68
2017-07-19T04:42:27.815Z,938.72
2017-07-19T04:42:56.048Z,938.68
2017-07-19T04:43:24.208Z,938.69
2017-07-19T04:43:52.301Z,938.67
2017-07-19T04:44:20.502Z,938.67
2017-07-19T04:44:48.586Z,938.71
2017-07-19T04:45:16.898Z,938.66
2017-07-19T04:45:45.110Z,938.65
2017-07-19T04:46:13.057Z,938.7
2017-07-19T04:46:41.356Z,938.68
2017-07-19T04:47:09.503Z,938.6
2017-07-19T04:47:37.712Z,938.65
2017-07-19T04:48:05.943Z,938.68
2017-07-19T04:48:33.972Z,938.68
2017-07-19T04:49:02.097Z,938.65
2017-07-19T04:49:30.247Z,938.66
2017-07-19T04:49:58.302Z,938.68
2017-07-19T04:50:26.641Z,938.63
2017-07-19T04:50:54.754Z,938.62
2017-07-19T04:51:22.878Z,938.62
2017-07-19T04:51:51.060Z,938.6
2017-07-19T04:52:19.263Z,938.6
2017-07-19T04:52:47.446Z,938.58
2017-07-19T04:53:15.685Z,938.58
2017-07-19T04:53:43.903Z,938.6
2017-07-19T04:54:11.960Z,938.6
2017-07-19T04:54:40.161Z,938.6
2017-07-19T04:55:08.350Z,938.63
2017-07-19T04:55:36.538Z,938.61
2017-07-19T04:56:04.623Z,938.6
2017-07-19T04:56:32.662Z,938.58
2017-07-19T04:57:00.885Z,938.63
2017-07-19T04:57:29.086Z,938.63
2017-07-19T04:57:57.221Z,938.63
2017-07-19T04:58:25.418Z,938.61
2017-07-19T04:58:53.533Z,938.67
2017-07-19T04:59:21.785Z,938.63
2017-07-19T04:59:49.750Z,938.63
2017-07-19T05:00:17.959Z,938.6
2017-07-19T05:00:46.124Z,938.64
2017-07-19T05:01:14.340Z,938.61
2017-07-19T05:01:42.609Z,938.61
2017-07-19T05:02:10.836Z,938.62
2017-07-19T05:02:39.003Z,938.62
2017-07-19T05:03:07.123Z,938.61
2017-07-19T05:03:35.132Z,938.61
2017-07-19T05:04:03.109Z,938.58
2017-07-19T05:04:31.238Z,938.56
2017-07-19T05:04:59.463Z,938.58
2017-07-19T05:05:27.777Z,938.56
2017-07-19T05:05:55.970Z,938.52
2017-07-19T05:06:23.970Z,938.54
2017-07-19T05:06:52.224Z,938.57
2017-07-19T05:07:20.338Z,938.55
2017-07-19T05:07:48.496Z,938.56
2017-07-19T05:08:16.633Z,938.53
2017-07-19T05:08:44.845Z,938.5
2017-07-19T05:09:13.016Z,938.52
2017-07-19T05:09:41.091Z,938.49
2017-07-19T05:10:09.302Z,938.48
2017-07-19T05:10:37.668Z,938.52
2017-07-19T05:11:05.791Z,938.53
2017-07-19T05:11:33.996Z,938.53
2017-07-19T05:12:02.360Z,938.47
2017-07-19T05:12:30.616Z,938.46
2017-07-19T05:12:58.827Z,938.46
2017-07-19T05:13:27.071Z,938.45
2017-07-19T05:13:55.213Z,938.47
2017-07-19T05:14:23.439Z,938.46
2017-07-19T05:14:51.499Z,938.47
2017-07-19T05:15:19.636Z,938.46
2017-07-19T05:15:47.905Z,938.43
2017-07-19T05:16:15.931Z,938.45
2017-07-19T05:16:44.183Z,938.41
2017-07-19T05:17:12.427Z,938.44
2017-07-19T05:17:40.685Z,938.44
2017-07-19T05:18:08.858Z,938.41
2017-07-19T05:18:36.956Z,938.39
2017-07-19T05:19:05.075Z,938.43
2017-07-19T05:19:33.289Z,938.44
2017-07-19T05:20:01.484Z,938.42
2017-07-19T05:20:29.779Z,938.46
2017-07-19T05:20:57.966Z,938.43
2017-07-19T05:21:26.136Z,938.43
2017-07-19T05:21:54.279Z,938.46
2017-07-19T05:22:22.489Z,938.42
2017-07-19T05:22:50.650Z,938.39
2017-07-19T05:23:18.787Z,938.42
2017-07-19T05:23:46.970Z,938.43
2017-07-19T05:24:15.083Z,938.42
2017-07-19T05:24:43.304Z,938.45
2017-07-19T05:25:11.511Z,938.39
2017-07-19T05:25:39.797Z,938.44
2017-07-19T05:26:07.937Z,938.39
2017-07-19T05:26:36.057Z,938.38
2017-07-19T05:27:04.304Z,938.41
2017-07-19T05:27:32.532Z,938.39
2017-07-19T05:28:00.753Z,938.4
2017-07-19T05:28:28.970Z,938.39
2017-07-19T05:28:57.176Z,938.4
2017-07-19T05:29:25.395Z,938.37
2017-07-19T05:29:53.677Z,938.34
2017-07-19T05:30:21.970Z,938.36
2017-07-19T05:30:49.967Z,938.4
2017-07-19T05:31:18.043Z,938.39
2017-07-19T05:31:46.168Z,938.35
2017-07-19T05:32:14.356Z,938.39
2017-07-19T05:32:42.548Z,938.43
2017-07-19T05:33:10.791Z,938.39
2017-07-19T05:33:38.980Z,938.37
2017-07-19T05:34:07.227Z,938.34
2017-07-19T05:34:35.317Z,938.34
2017-07-19T05:35:03.491Z,938.34
2017-07-19T05:35:31.791Z,938.38
2017-07-19T05:35:59.962Z,938.35
2017-07-19T05:36:28.192Z,938.33
2017-07-19T05:36:56.343Z,938.31
2017-07-19T05:37:24.525Z,938.32
2017-07-19T05:37:52.607Z,938.32
2017-07-19T05:38:20.680Z,938.32
2017-07-19T05:38:48.840Z,938.32
2017-07-19T05:39:17.032Z,938.32
2017-07-19T05:39:45.025Z,938.32
2017-07-19T05:40:13.046Z,938.31
2017-07-19T05:40:41.375Z,938.32
2017-07-19T05:41:09.533Z,938.3
2017-07-19T05:41:37.739Z,938.29
2017-07-19T05:42:05.948Z,938.35
2017-07-19T05:42:34.082Z,938.34
2017-07-19T05:43:02.279Z,938.34
2017-07-19T05:43:30.360Z,938.35
2017-07-19T05:43:58.449Z,938.34
2017-07-19T05:44:26.540Z,938.37
2017-07-19T05:44:54.769Z,938.33
2017-07-19T05:45:22.797Z,938.38
2017-07-19T05:45:50.970Z,938.41
2017-07-19T05:46:19.004Z,938.36
2017-07-19T05:46:47.198Z,938.38
2017-07-19T05:47:15.371Z,938.39
2017-07-19T05:47:43.558Z,938.39
2017-07-19T05:48:11.609Z,938.32
2017-07-19T05:48:39.840Z,938.34
2017-07-19T05:49:08.068Z,938.35
2017-07-19T05:49:36.274Z,938.32
2017-07-19T05:50:04.450Z,938.31
2017-07-19T05:50:32.537Z,938.34
2017-07-19T05:51:00.846Z,938.3
2017-07-19T05:51:28.879Z,938.3
2017-07-19T05:51:57.116Z,938.3
2017-07-19T05:52:25.224Z,938.32
2017-07-19T05:52:53.445Z,938.28